Time;durP1;ratioP1;P1;durP2;ratioP2;P2;SDS_P1;SDS_P2;PMS_P1;PMS_P2;Temp;Humidity;BMP_temperature;BMP_pressure;BME280_temperature;BME280_humidity;BME280_pressure;Samples;Min_cycle;Max_cycle;Signal;HPM_P1;HPM_P2
2022/08/22 00:01:04;;;;;;;;;;;;;;;-142.75;100.00;76528.97;5035293;28;19917;-66
2022/08/22 00:03:47;;;;;;;;;;;;;;;-142.75;100.00;76517.16;5034770;28;20397;-67
2022/08/22 00:06:12;;;;;;;;;;;;;;;-142.75;100.00;76505.34;5035165;28;19917;-66
2022/08/22 00:08:44;;;;;;;;;;;;;;;-142.75;100.00;76505.34;5034792;28;20331;-66
2022/08/22 00:11:10;;;;;;;;;;;;;;;-142.75;100.00;76507.31;5034847;28;19920;-67
2022/08/22 00:13:54;;;;;;;;;;;;;;;-142.75;100.00;76495.50;5034923;28;19956;-67
2022/08/22 00:16:19;;;;;;;;;;;;;;;-142.75;100.00;76507.31;5035122;28;19943;-66
2022/08/22 00:18:49;;;;;;;;;;;;;;;-142.75;100.00;76511.25;5050076;28;19917;-66
2022/08/22 00:21:18;;;;;;;;;;;;;;;-142.75;100.00;76523.06;5034793;28;19917;-66
2022/08/22 00:23:49;;;;;;;;;;;;;;;-142.75;100.00;76523.06;5034341;28;19913;-66
2022/08/22 00:26:17;;;;;;;;;;;;;;;-142.75;100.00;76519.13;5034624;28;19913;-66
2022/08/22 00:28:48;;;;;;;;;;;;;;;-142.75;100.00;76517.16;5034567;28;20362;-66
2022/08/22 00:31:24;;;;;;;;;;;;;;;-142.75;100.00;76511.25;5035141;28;19921;-66
2022/08/22 00:34:08;;;;;;;;;;;;;;;-142.75;100.00;76515.19;5035018;28;19913;-66
2022/08/22 00:36:39;;;;;;;;;;;;;;;-142.75;100.00;76517.16;5079989;22;19924;-69
2022/08/22 00:39:11;;;;;;;;;;;;;;;-142.75;100.00;76515.19;5071460;28;19921;-70
2022/08/22 00:41:49;;;;;;;;;;;;;;;-142.75;100.00;76530.91;5072732;28;20274;-70
2022/08/22 00:44:20;;;;;;;;;;;;;;;-142.75;100.00;76530.91;5072823;28;19920;-67
2022/08/22 00:46:48;;;;;;;;;;;;;;;-142.75;100.00;76544.69;5071072;28;19913;-67
2022/08/22 00:49:32;;;;;;;;;;;;;;;-142.75;100.00;76560.44;5072010;28;19922;-67
2022/08/22 00:52:21;;;;;;;;;;;;;;;-142.75;100.00;76558.47;5071284;28;19916;-68
2022/08/22 00:55:02;;;;;;;;;;;;;;;-142.75;100.00;76554.53;5072443;28;19919;-68
2022/08/22 00:57:38;;;;;;;;;;;;;;;-142.75;100.00;76546.66;5072203;28;19913;-68
2022/08/22 01:00:11;;;;;;;;;;;;;;;-142.75;100.00;76544.69;5071198;28;19916;-69
2022/08/22 01:02:36;;;;;;;;;;;;;;;-142.75;100.00;76544.69;5072387;28;19967;-68
2022/08/22 01:05:05;;;;;;;;;;;;;;;-142.75;100.00;76550.59;5072600;28;19954;-68
2022/08/22 01:07:42;;;;;;;;;;;;;;;-142.75;100.00;76554.53;5071124;28;20294;-68
2022/08/22 01:10:26;;;;;;;;;;;;;;;-142.75;100.00;76550.59;5071170;28;19912;-68
2022/08/22 01:13:02;;;;;;;;;;;;;;;-142.75;100.00;76558.47;5071472;28;20290;-68
2022/08/22 01:15:28;;;;;;;;;;;;;;;-142.75;100.00;76570.28;5072329;28;20010;-68
2022/08/22 01:17:54;;;;;;;;;;;;;;;-142.75;100.00;76558.47;5072017;28;19970;-68
2022/08/22 01:20:37;;;;;;;;;;;;;;;-142.75;100.00;76560.44;5072346;28;19967;-68
2022/08/22 01:23:08;;;;;;;;;;;;;;;-142.75;100.00;76570.28;5072514;28;20348;-67
2022/08/22 01:25:52;;;;;;;;;;;;;;;-142.75;100.00;76562.41;5072146;28;19917;-69
2022/08/22 01:28:47;;;;;;;;;;;;;;;-142.75;100.00;76570.28;5071984;28;20608;-68
2022/08/22 01:31:21;;;;;;;;;;;;;;;-142.75;100.00;76574.22;5072284;28;19954;-68
2022/08/22 01:34:05;;;;;;;;;;;;;;;-142.75;100.00;76576.19;5072129;28;20382;-69
2022/08/22 01:36:36;;;;;;;;;;;;;;;-142.75;100.00;76586.03;5071779;28;19917;-68
2022/08/22 01:39:09;;;;;;;;;;;;;;;-142.75;100.00;76584.06;5072075;28;20374;-68
2022/08/22 01:41:45;;;;;;;;;;;;;;;-142.75;100.00;76599.81;5072049;28;19922;-69
2022/08/22 01:44:10;;;;;;;;;;;;;;;-142.75;100.00;76605.72;5072134;28;19978;-68
2022/08/22 01:46:42;;;;;;;;;;;;;;;-142.75;100.00;76605.72;5071658;28;19951;-66
2022/08/22 01:49:24;;;;;;;;;;;;;;;-142.75;100.00;76625.41;5070804;28;19912;-68
2022/08/22 01:51:54;;;;;;;;;;;;;;;-142.75;100.00;76643.13;5072069;28;19921;-68
2022/08/22 01:54:25;;;;;;;;;;;;;;;-142.75;100.00;76647.06;5071947;28;20321;-68
2022/08/22 01:56:57;;;;;;;;;;;;;;;-142.75;100.00;76639.19;5071689;28;19913;-68
2022/08/22 01:59:29;;;;;;;;;;;;;;;-142.75;100.00;76637.22;5072303;28;20387;-68
2022/08/22 02:02:03;;;;;;;;;;;;;;;-142.75;100.00;76633.28;5075566;28;19920;-69
2022/08/22 02:04:47;;;;;;;;;;;;;;;-142.75;100.00;76621.47;5075750;28;19912;-68
2022/08/22 02:07:16;;;;;;;;;;;;;;;-142.75;100.00;76605.72;5074187;28;19913;-68
2022/08/22 02:09:41;;;;;;;;;;;;;;;-142.75;100.00;76609.66;5075772;28;19913;-68
2022/08/22 02:12:25;;;;;;;;;;;;;;;-142.75;100.00;76611.63;5075675;28;20297;-68
2022/08/22 02:15:02;;;;;;;;;;;;;;;-142.75;100.00;76609.66;5074382;28;19919;-68
2022/08/22 02:17:30;;;;;;;;;;;;;;;-142.75;100.00;76609.66;5075291;28;20271;-68
2022/08/22 02:20:14;;;;;;;;;;;;;;;-142.75;100.00;76605.72;5075488;28;19912;-68
2022/08/22 02:22:39;;;;;;;;;;;;;;;-142.75;100.00;76601.78;5075436;28;19916;-67
2022/08/22 02:25:13;;;;;;;;;;;;;;;-142.75;100.00;76609.66;5075325;28;20301;-68
2022/08/22 02:27:45;;;;;;;;;;;;;;;-142.75;100.00;76609.66;5075044;28;19912;-68
2022/08/22 02:30:13;;;;;;;;;;;;;;;-142.75;100.00;76605.72;5075363;28;19966;-67
2022/08/22 02:32:38;;;;;;;;;;;;;;;-142.75;100.00;76615.56;5075277;28;19913;-68
2022/08/22 02:35:04;;;;;;;;;;;;;;;-142.75;100.00;76607.69;5075022;28;19978;-68
2022/08/22 02:37:38;;;;;;;;;;;;;;;-142.75;100.00;76609.66;5074943;28;19916;-68
2022/08/22 02:40:08;;;;;;;;;;;;;;;-142.75;100.00;76605.72;5075070;28;19920;-68
2022/08/22 02:42:39;;;;;;;;;;;;;;;-142.75;100.00;76619.50;5075026;28;19923;-68
2022/08/22 02:45:16;;;;;;;;;;;;;;;-142.75;100.00;76611.63;5075038;28;19916;-68
2022/08/22 02:47:47;;;;;;;;;;;;;;;-142.75;100.00;76605.72;5074735;28;20419;-67
2022/08/22 02:50:28;;;;;;;;;;;;;;;-142.75;100.00;76625.41;5074952;28;19973;-68
2022/08/22 02:53:12;;;;;;;;;;;;;;;-142.75;100.00;76613.59;5074939;28;20417;-67
2022/08/22 02:55:52;;;;;;;;;;;;;;;-142.75;100.00;76629.34;5074835;28;19963;-68
2022/08/22 02:58:18;;;;;;;;;;;;;;;-142.75;100.00;76639.19;5074529;28;20587;-68
2022/08/22 03:00:46;;;;;;;;;;;;;;;-142.75;100.00;76645.09;5074712;28;19988;-68
2022/08/22 03:03:18;;;;;;;;;;;;;;;-142.75;100.00;76627.38;5074671;28;19917;-68
2022/08/22 03:05:43;;;;;;;;;;;;;;;-142.75;100.00;76631.31;5074649;28;19923;-68
2022/08/22 03:08:31;;;;;;;;;;;;;;;-142.75;100.00;76629.34;5074365;28;19913;-68
2022/08/22 03:11:06;;;;;;;;;;;;;;;-142.75;100.00;76631.31;5074625;28;19999;-67
2022/08/22 03:13:45;;;;;;;;;;;;;;;-142.75;100.00;76629.34;5073760;28;19985;-68
2022/08/22 03:16:29;;;;;;;;;;;;;;;-142.75;100.00;76623.44;5074505;28;19913;-67
2022/08/22 03:19:01;;;;;;;;;;;;;;;-142.75;100.00;76613.59;5074204;28;19916;-67
2022/08/22 03:21:34;;;;;;;;;;;;;;;-142.75;100.00;76609.66;5074355;28;19917;-68
2022/08/22 03:24:16;;;;;;;;;;;;;;;-142.75;100.00;76607.69;5074382;28;19912;-68
2022/08/22 03:26:46;;;;;;;;;;;;;;;-142.75;100.00;76605.72;5073934;28;19935;-68
2022/08/22 03:29:16;;;;;;;;;;;;;;;-142.75;100.00;76601.78;5074329;28;19912;-68
2022/08/22 03:32:00;;;;;;;;;;;;;;;-142.75;100.00;76605.72;5074244;28;19918;-68
2022/08/22 03:34:25;;;;;;;;;;;;;;;-142.75;100.00;76586.03;5074042;28;20014;-69
2022/08/22 03:37:01;;;;;;;;;;;;;;;-142.75;100.00;76593.91;5072335;28;19999;-69
2022/08/22 03:39:42;;;;;;;;;;;;;;;-142.75;100.00;76609.66;5074588;28;19913;-69
2022/08/22 03:42:13;;;;;;;;;;;;;;;-142.75;100.00;76588.00;5074017;28;19963;-68
2022/08/22 03:44:53;;;;;;;;;;;;;;;-142.75;100.00;76586.03;5073914;28;19912;-71
2022/08/22 03:47:18;;;;;;;;;;;;;;;-142.75;100.00;76580.13;5073278;28;20331;-69
2022/08/22 03:50:02;;;;;;;;;;;;;;;-142.75;100.00;76576.19;5073941;28;19927;-69
2022/08/22 03:55:49;;;;;;;;;;;;;;;-142.75;100.00;76574.22;5073741;28;19965;-69
2022/08/22 03:58:24;;;;;;;;;;;;;;;-142.75;100.00;76578.16;5073413;28;19999;-68
2022/08/22 04:01:08;;;;;;;;;;;;;;;-142.75;100.00;76591.94;5061411;28;20414;-68
2022/08/22 04:03:36;;;;;;;;;;;;;;;-142.75;100.00;76613.59;5064245;28;19923;-67
2022/08/22 04:06:05;;;;;;;;;;;;;;;-142.75;100.00;76605.72;5056800;28;20405;-68
2022/08/22 04:08:48;;;;;;;;;;;;;;;-142.75;100.00;76621.47;5059019;28;19916;-68
2022/08/22 04:11:30;;;;;;;;;;;;;;;-142.75;100.00;76621.47;5064174;28;19920;-68
2022/08/22 04:14:07;;;;;;;;;;;;;;;-142.75;100.00;76633.28;5060635;28;19935;-69
2022/08/22 04:16:41;;;;;;;;;;;;;;;-142.75;100.00;76629.34;5062949;28;19912;-68
2022/08/22 04:19:15;;;;;;;;;;;;;;;-142.75;100.00;76637.22;5059473;28;19919;-66
2022/08/22 04:21:44;;;;;;;;;;;;;;;-142.75;100.00;76645.09;5060683;28;19917;-67
2022/08/22 04:24:19;;;;;;;;;;;;;;;-142.75;100.00;76649.03;5056396;28;19927;-66
2022/08/22 04:27:03;;;;;;;;;;;;;;;-142.75;100.00;76651.00;5057731;28;19913;-67
2022/08/22 04:29:36;;;;;;;;;;;;;;;-142.75;100.00;76654.94;5065580;28;19978;-67
2022/08/22 04:32:07;;;;;;;;;;;;;;;-142.75;100.00;76660.84;5054885;28;19959;-67
2022/08/22 04:35:07;;;;;;;;;;;;;;;-142.75;100.00;76668.72;5062737;28;19942;-67
2022/08/22 04:37:35;;;;;;;;;;;;;;;-142.75;100.00;76672.66;4999581;28;19924;-66
2022/08/22 04:40:05;;;;;;;;;;;;;;;-142.75;100.00;76670.69;5046882;28;19917;-67
2022/08/22 04:42:35;;;;;;;;;;;;;;;-142.75;100.00;76668.72;5066900;28;19927;-71
2022/08/22 04:45:15;;;;;;;;;;;;;;;-142.75;100.00;76676.59;5057688;28;19995;-70
2022/08/22 04:47:56;;;;;;;;;;;;;;;-142.75;100.00;76688.41;5061350;28;19939;-69
2022/08/22 04:50:27;;;;;;;;;;;;;;;-142.75;100.00;76694.31;5057721;28;20379;-68
2022/08/22 04:53:03;;;;;;;;;;;;;;;-142.75;100.00;76702.19;5061043;28;19919;-68
2022/08/22 04:55:35;;;;;;;;;;;;;;;-142.75;100.00;76715.97;5057449;28;20374;-69
2022/08/22 04:58:18;;;;;;;;;;;;;;;-142.75;100.00;76714.00;5058876;28;19978;-68
2022/08/22 05:01:07;;;;;;;;;;;;;;;-142.75;100.00;76714.00;5063708;28;19922;-68
2022/08/22 05:03:34;;;;;;;;;;;;;;;-142.75;100.00;76721.88;5072455;28;19916;-67
2022/08/22 05:06:01;;;;;;;;;;;;;;;-142.75;100.00;76729.75;5071051;28;19912;-66
2022/08/22 05:08:30;;;;;;;;;;;;;;;-142.75;100.00;76735.66;5072328;28;19919;-66
2022/08/22 05:10:57;;;;;;;;;;;;;;;-142.75;100.00;76735.66;5072396;28;19965;-66
2022/08/22 05:13:41;;;;;;;;;;;;;;;-142.75;100.00;76739.59;5072389;28;19999;-66
2022/08/22 05:16:10;;;;;;;;;;;;;;;-142.75;100.00;76751.41;5072138;28;19917;-66
2022/08/22 05:18:40;;;;;;;;;;;;;;;-142.75;100.00;76753.38;5072289;28;20384;-66
2022/08/22 05:21:07;;;;;;;;;;;;;;;-142.75;100.00;76751.41;5072446;28;19913;-66
2022/08/22 05:23:38;;;;;;;;;;;;;;;-142.75;100.00;76747.47;5072302;28;19927;-66
2022/08/22 05:26:05;;;;;;;;;;;;;;;-142.75;100.00;76747.47;5070898;28;20359;-66
2022/08/22 05:28:31;;;;;;;;;;;;;;;-142.75;100.00;76749.44;5071847;28;20039;-65
2022/08/22 05:30:56;;;;;;;;;;;;;;;-142.75;100.00;76743.53;5072121;28;19991;-66
2022/08/22 05:33:43;;;;;;;;;;;;;;;-142.75;100.00;76745.50;5072162;28;20373;-66
2022/08/22 05:36:10;;;;;;;;;;;;;;;-142.75;100.00;76769.13;5070520;28;19916;-66
2022/08/22 05:38:44;;;;;;;;;;;;;;;-142.75;100.00;76765.19;5072090;28;20274;-67
2022/08/22 05:41:15;;;;;;;;;;;;;;;-142.75;100.00;76763.22;5072085;28;19923;-66
2022/08/22 05:43:42;;;;;;;;;;;;;;;-142.75;100.00;76749.44;5070912;28;19913;-66
2022/08/22 05:46:14;;;;;;;;;;;;;;;-142.75;100.00;76735.66;5071973;28;19912;-66
2022/08/22 05:48:42;;;;;;;;;;;;;;;-142.75;100.00;76743.53;5070581;28;19920;-66
2022/08/22 05:51:17;;;;;;;;;;;;;;;-142.75;100.00;76727.78;5072050;28;19912;-66
2022/08/22 05:53:45;;;;;;;;;;;;;;;-142.75;100.00;76702.19;5071933;28;19919;-67
2022/08/22 05:56:12;;;;;;;;;;;;;;;-142.75;100.00;76682.50;5071782;28;19965;-65
2022/08/22 05:58:37;;;;;;;;;;;;;;;-142.75;100.00;76654.94;5071704;28;20341;-66
2022/08/22 06:01:24;;;;;;;;;;;;;;;-142.75;100.00;76633.28;5071779;28;19923;-66
2022/08/22 06:04:08;;;;;;;;;;;;;;;-142.75;100.00;76589.97;5071898;28;19919;-67
2022/08/22 06:06:38;;;;;;;;;;;;;;;-142.75;100.00;76562.41;5071530;28;19923;-65
2022/08/22 06:09:07;;;;;;;;;;;;;;;-142.75;100.00;76554.53;5071820;28;20004;-66
2022/08/22 06:11:41;;;;;;;;;;;;;;;-142.75;100.00;76532.88;5071845;28;20409;-66
2022/08/22 06:14:11;;;;;;;;;;;;;;;-142.75;100.00;76515.19;5071739;28;19919;-65
2022/08/22 06:16:53;;;;;;;;;;;;;;;-142.75;100.00;76501.41;5071422;28;19986;-65
2022/08/22 06:19:19;;;;;;;;;;;;;;;-142.75;100.00;76477.78;5071765;28;19919;-65
2022/08/22 06:21:47;;;;;;;;;;;;;;;-142.75;100.00;76475.81;5071642;28;19916;-66
2022/08/22 06:24:17;;;;;;;;;;;;;;;-142.75;100.00;76460.06;5071719;28;19920;-66
2022/08/22 06:26:45;;;;;;;;;;;;;;;-142.75;100.00;76436.44;5071363;28;19913;-66
2022/08/22 06:29:14;;;;;;;;;;;;;;;-142.75;100.00;76424.63;5071547;28;19913;-67
2022/08/22 06:31:47;;;;;;;;;;;;;;;-142.75;100.00;76422.66;5071601;28;19981;-67
2022/08/22 06:34:14;;;;;;;;;;;;;;;-142.75;100.00;76395.09;5071644;28;19912;-66
2022/08/22 06:36:42;;;;;;;;;;;;;;;-142.75;100.00;76369.50;5068092;22;19925;-66
2022/08/22 06:39:26;;;;;;;;;;;;;;;-142.75;100.00;76349.81;5031332;28;19921;-66
2022/08/22 06:41:54;;;;;;;;;;;;;;;-142.75;100.00;76318.34;5032082;28;19918;-66
2022/08/22 06:44:22;;;;;;;;;;;;;;;-142.75;100.00;76304.56;5032200;28;20314;-67
2022/08/22 06:46:49;;;;;;;;;;;;;;;-142.75;100.00;76282.91;5032237;28;20349;-66
2022/08/22 06:49:15;;;;;;;;;;;;;;;-142.75;100.00;76259.28;5018295;28;19920;-67
2022/08/22 06:51:41;;;;;;;;;;;;;;;-142.75;100.00;76247.47;5035693;28;20338;-67
2022/08/22 06:54:11;;;;;;;;;;;;;;;-142.75;100.00;76221.88;5018231;28;19932;-66
2022/08/22 06:56:41;;;;;;;;;;;;;;;-142.75;100.00;76190.41;5035132;28;19920;-67
2022/08/22 06:59:14;;;;;;;;;;;;;;;-142.75;100.00;76198.28;5035472;28;19913;-67
2022/08/22 07:01:55;;;;;;;;;;;;;;;-142.75;100.00;76170.72;5035110;28;20024;-67
2022/08/22 07:04:25;;;;;;;;;;;;;;;-142.75;100.00;76154.97;5035318;28;19917;-67
2022/08/22 07:06:50;;;;;;;;;;;;;;;-142.75;100.00;76113.63;5034895;28;19920;-67
2022/08/22 07:09:18;;;;;;;;;;;;;;;-142.75;100.00;76113.63;5035293;28;19913;-67
2022/08/22 07:11:44;;;;;;;;;;;;;;;-142.75;100.00;76103.78;5035315;28;19917;-67
2022/08/22 07:14:10;;;;;;;;;;;;;;;-142.75;100.00;76093.94;5017367;28;19935;-67
2022/08/22 07:16:54;;;;;;;;;;;;;;;-142.75;100.00;76113.63;5034652;28;19935;-67
2022/08/22 07:19:29;;;;;;;;;;;;;;;-142.75;100.00;76091.97;5035037;28;20318;-67
2022/08/22 07:21:55;;;;;;;;;;;;;;;-142.75;100.00;76050.66;5034798;28;19986;-66
2022/08/22 07:24:25;;;;;;;;;;;;;;;-142.75;100.00;76038.84;5035121;28;19920;-66
2022/08/22 07:26:58;;;;;;;;;;;;;;;-142.75;100.00;76015.22;5034449;28;19913;-66
2022/08/22 07:29:37;;;;;;;;;;;;;;;-142.75;100.00;76005.38;5034905;28;20015;-67
2022/08/22 07:32:10;;;;;;;;;;;;;;;-142.75;100.00;75999.47;5034893;28;19913;-67
2022/08/22 07:34:36;;;;;;;;;;;;;;;-142.75;100.00;75985.69;5034833;28;19948;-67
2022/08/22 07:37:10;;;;;;;;;;;;;;;-142.75;100.00;75979.78;5034262;28;20388;-66
2022/08/22 07:39:41;;;;;;;;;;;;;;;-142.75;100.00;75983.72;5036423;28;20430;-66
2022/08/22 07:42:13;;;;;;;;;;;;;;;-142.75;100.00;75966.00;5038485;28;20071;-66
2022/08/22 07:44:47;;;;;;;;;;;;;;;-142.75;100.00;75946.34;5038044;28;19920;-65
2022/08/22 07:47:15;;;;;;;;;;;;;;;-142.75;100.00;75936.50;5037796;28;20007;-66
2022/08/22 07:49:49;;;;;;;;;;;;;;;-142.75;100.00;75914.84;5037440;28;19913;-66
2022/08/22 07:52:14;;;;;;;;;;;;;;;-142.75;100.00;75899.09;5038339;28;19917;-66
2022/08/22 07:54:43;;;;;;;;;;;;;;;-142.75;100.00;75897.13;5039263;28;20268;-66
2022/08/22 07:57:14;;;;;;;;;;;;;;;-142.75;100.00;75875.47;5037387;28;19920;-66
2022/08/22 07:59:48;;;;;;;;;;;;;;;-142.75;100.00;75842.03;5037669;28;19940;-66
2022/08/22 08:02:15;;;;;;;;;;;;;;;-142.75;100.00;75830.22;5039236;28;19924;-66
2022/08/22 08:04:41;;;;;;;;;;;;;;;-142.75;100.00;75814.47;5039173;28;20367;-66
2022/08/22 08:07:07;;;;;;;;;;;;;;;-142.75;100.00;75796.75;5037810;28;20357;-66
2022/08/22 08:09:42;;;;;;;;;;;;;;;-142.75;100.00;75788.88;5036933;28;20375;-65
2022/08/22 08:12:09;;;;;;;;;;;;;;;-142.75;100.00;75739.69;5037970;28;19921;-65
2022/08/22 08:14:36;;;;;;;;;;;;;;;-142.75;100.00;75739.69;5038808;28;19917;-66
2022/08/22 08:17:08;;;;;;;;;;;;;;;-142.75;100.00;75735.75;5019360;28;20367;-66
2022/08/22 08:19:36;;;;;;;;;;;;;;;-142.75;100.00;75712.13;5036719;28;19971;-66
2022/08/22 08:22:03;;;;;;;;;;;;;;;-142.75;100.00;75698.34;5036523;28;20379;-66
2022/08/22 08:24:30;;;;;;;;;;;;;;;-142.75;100.00;75678.66;5037607;28;19921;-66
2022/08/22 08:29:46;;;;;;;;;;;;;;;-142.75;100.00;75670.81;5034358;28;20016;-67
2022/08/22 08:32:12;;;;;;;;;;;;;;;-142.75;100.00;75637.34;5034140;28;19920;-65
2022/08/22 08:34:38;;;;;;;;;;;;;;;-142.75;100.00;75607.81;5033820;28;19913;-68
2022/08/22 08:37:12;;;;;;;;;;;;;;;-142.75;100.00;75596.00;5033401;28;19962;-68
2022/08/22 08:39:40;;;;;;;;;;;;;;;-142.75;100.00;75570.44;5033757;28;19913;-68
2022/08/22 08:42:05;;;;;;;;;;;;;;;-142.75;100.00;75556.66;5033401;28;19940;-68
2022/08/22 08:44:50;;;;;;;;;;;;;;;-142.75;100.00;75554.69;5033186;28;19913;-68
2022/08/22 08:47:25;;;;;;;;;;;;;;;-142.75;100.00;75566.50;5029016;28;19917;-68
2022/08/22 08:50:13;;;;;;;;;;;;;;;-142.75;100.00;75556.66;5033482;28;19959;-68
2022/08/22 08:52:46;;;;;;;;;;;;;;;-142.75;100.00;75535.00;5033395;28;20011;-68
2022/08/22 08:55:24;;;;;;;;;;;;;;;-142.75;100.00;75535.00;5015381;28;19956;-68
2022/08/22 08:57:53;;;;;;;;;;;;;;;-142.75;100.00;75535.00;5033375;28;19984;-68
2022/08/22 09:00:25;;;;;;;;;;;;;;;-142.75;100.00;75493.69;5033386;28;19952;-68
2022/08/22 09:03:03;;;;;;;;;;;;;;;-142.75;100.00;75487.78;5015731;28;19921;-68
2022/08/22 09:05:50;;;;;;;;;;;;;;;-142.75;100.00;75483.84;5033252;28;19913;-68
2022/08/22 09:08:29;;;;;;;;;;;;;;;-142.75;100.00;75456.28;5033109;28;20383;-68
2022/08/22 09:11:04;;;;;;;;;;;;;;;-142.75;100.00;75468.09;5032556;28;19916;-68
2022/08/22 09:13:48;;;;;;;;;;;;;;;-142.75;100.00;75446.44;5033242;28;19913;-68
2022/08/22 09:16:31;;;;;;;;;;;;;;;-142.75;100.00;75428.75;5032954;28;19920;-68
2022/08/22 09:19:17;;;;;;;;;;;;;;;-142.75;100.00;75440.53;5015376;28;19917;-68
2022/08/22 09:21:57;;;;;;;;;;;;;;;-142.75;99.82;75393.31;5032924;28;19917;-68
2022/08/22 09:24:44;;;;;;;;;;;;;;;-142.75;97.77;75381.50;5015158;28;19913;-68
2022/08/22 09:27:16;;;;;;;;;;;;;;;-142.75;94.29;75405.13;5032677;28;19913;-67
2022/08/22 09:29:45;;;;;;;;;;;;;;;-142.75;97.79;75405.13;5015031;28;19921;-67
2022/08/22 09:32:20;;;;;;;;;;;;;;;-142.75;85.47;75414.97;5032786;28;19914;-65
2022/08/22 09:34:57;;;;;;;;;;;;;;;-142.75;87.62;75393.31;5032911;28;19944;-66
2022/08/22 09:37:28;;;;;;;;;;;;;;;-142.75;86.13;75359.88;5014900;28;19967;-66
2022/08/22 09:40:05;;;;;;;;;;;;;;;-142.75;80.30;75393.31;5015214;28;19913;-66
2022/08/22 09:42:30;;;;;;;;;;;;;;;-142.75;81.24;75377.56;5015978;28;19953;-66
2022/08/22 09:45:10;;;;;;;;;;;;;;;-142.75;77.25;75346.09;5036742;28;19946;-67
2022/08/22 09:47:38;;;;;;;;;;;;;;;-142.75;78.61;75328.38;5037238;28;19920;-66
2022/08/22 09:50:23;;;;;;;;;;;;;;;-142.75;79.05;75318.53;5036492;28;19936;-67
2022/08/22 09:52:52;;;;;;;;;;;;;;;-142.75;74.81;75285.09;5036118;28;19917;-67
2022/08/22 09:55:23;;;;;;;;;;;;;;;-142.75;76.38;75281.16;5036668;28;19944;-67
2022/08/22 09:58:18;;;;;;;;;;;;;;;-142.75;76.03;75279.19;5036074;28;19913;-68
2022/08/22 10:00:55;;;;;;;;;;;;;;;-142.75;73.87;75312.63;5030152;28;20000;-69
2022/08/22 10:03:50;;;;;;;;;;;;;;;-142.75;74.91;75239.81;5033571;28;19975;-68
2022/08/22 10:06:19;;;;;;;;;;;;;;;-142.75;71.93;75231.94;5032398;28;19913;-68
2022/08/22 10:09:02;;;;;;;;;;;;;;;-142.75;73.36;75228.00;5014492;28;19966;-68
2022/08/22 10:11:44;;;;;;;;;;;;;;;-142.75;70.27;75235.88;5014578;28;19917;-68
2022/08/22 10:14:09;;;;;;;;;;;;;;;-142.75;71.01;75235.88;5032343;28;19967;-68
2022/08/22 10:16:46;;;;;;;;;;;;;;;-142.75;72.45;75235.88;5014308;28;19913;-68
2022/08/22 10:19:11;;;;;;;;;;;;;;;-142.75;72.30;75224.09;5032311;28;20394;-68
2022/08/22 10:21:46;;;;;;;;;;;;;;;-142.75;69.35;75224.09;5016054;28;19921;-69
2022/08/22 10:24:17;;;;;;;;;;;;;;;-142.75;69.99;75279.19;5036009;28;19914;-66
2022/08/22 10:26:46;;;;;;;;;;;;;;;-142.75;73.57;75267.38;5035493;28;19916;-66
2022/08/22 10:29:26;;;;;;;;;;;;;;;-142.75;71.39;75267.38;5018299;28;19918;-67
2022/08/22 10:31:56;;;;;;;;;;;;;;;-142.75;70.22;75257.53;5020306;28;19913;-67
2022/08/22 10:34:26;;;;;;;;;;;;;;;-142.75;73.54;75228.00;5036363;28;19917;-66
2022/08/22 10:37:16;;;;;;;;;;;;;;;-142.75;72.85;75263.44;5035192;28;20417;-66
2022/08/22 10:39:56;;;;;;;;;;;;;;;-142.75;72.85;75243.75;5018097;28;19920;-67
2022/08/22 10:42:25;;;;;;;;;;;;;;;-142.75;71.88;75249.66;5035687;28;19923;-67
2022/08/22 10:44:50;;;;;;;;;;;;;;;-142.75;69.57;75235.88;5035889;28;19920;-66
2022/08/22 10:47:31;;;;;;;;;;;;;;;-142.75;68.71;75226.06;5017726;28;20290;-66
2022/08/22 10:50:05;;;;;;;;;;;;;;;-142.75;67.92;75281.16;5018049;28;19913;-66
2022/08/22 10:52:36;;;;;;;;;;;;;;;-142.75;71.49;75247.69;5035362;28;19978;-66
2022/08/22 10:55:06;;;;;;;;;;;;;;;-142.75;71.62;75251.63;5017957;28;20287;-66
2022/08/22 10:57:39;;;;;;;;;;;;;;;-142.75;73.18;75281.16;5035218;28;19913;-66
2022/08/22 11:00:04;;;;;;;;;;;;;;;-142.75;72.70;75214.25;5035408;28;19932;-66
2022/08/22 11:02:32;;;;;;;;;;;;;;;-142.75;70.26;75163.09;5017828;28;19987;-67
2022/08/22 11:05:06;;;;;;;;;;;;;;;-142.75;67.71;75228.00;5035539;28;19917;-67
2022/08/22 11:07:34;;;;;;;;;;;;;;;-142.75;69.81;75216.22;5035488;28;19913;-67
2022/08/22 11:10:04;;;;;;;;;;;;;;;-142.75;71.19;75182.75;5017983;28;19971;-67
2022/08/22 11:12:41;;;;;;;;;;;;;;;-142.75;68.43;75127.66;5035472;28;19913;-67
2022/08/22 11:15:09;;;;;;;;;;;;;;;-142.75;66.13;75161.13;5035575;28;20012;-66
2022/08/22 11:17:34;;;;;;;;;;;;;;;-142.75;67.18;75172.91;5035009;28;19920;-67
2022/08/22 11:20:08;;;;;;;;;;;;;;;-142.75;69.32;75161.13;5035510;28;19917;-67
2022/08/22 11:22:52;;;;;;;;;;;;;;;-142.75;66.76;75109.94;5035584;28;20015;-68
2022/08/22 11:25:23;;;;;;;;;;;;;;;-142.75;66.47;75080.44;5017638;28;19917;-68
2022/08/22 11:27:58;;;;;;;;;;;;;;;-142.75;64.48;75117.81;5034872;28;19913;-68
2022/08/22 11:30:44;;;;;;;;;;;;;;;-142.75;64.42;75060.75;5035276;28;19913;-68
2022/08/22 11:33:20;;;;;;;;;;;;;;;-142.75;64.47;75058.78;5034529;28;19967;-68
2022/08/22 11:36:10;;;;;;;;;;;;;;;-142.75;65.66;75137.50;5035074;28;20001;-68
2022/08/22 11:38:57;;;;;;;;;;;;;;;-142.75;65.73;75163.09;5034879;28;19913;-68
2022/08/22 11:41:31;;;;;;;;;;;;;;;-142.75;65.40;75082.41;5034920;28;19917;-68
2022/08/22 11:44:02;;;;;;;;;;;;;;;-142.75;64.57;75054.84;5035279;28;19921;-68
2022/08/22 11:46:27;;;;;;;;;;;;;;;-142.75;63.28;75011.56;5034613;28;20037;-68
2022/08/22 11:48:58;;;;;;;;;;;;;;;-142.75;65.53;75068.63;5034450;28;19979;-68
2022/08/22 11:51:24;;;;;;;;;;;;;;;-142.75;63.68;75096.19;5034503;28;20008;-68
2022/08/22 11:53:54;;;;;;;;;;;;;;;-142.75;66.81;75129.63;5017123;28;19956;-68
2022/08/22 11:56:25;;;;;;;;;;;;;;;-142.75;65.89;75070.59;5034349;28;19951;-68
2022/08/22 11:59:19;;;;;;;;;;;;;;;-142.75;65.40;75054.84;5034189;28;19956;-68
2022/08/22 12:02:00;;;;;;;;;;;;;;;-142.75;66.30;75054.84;5014787;28;20364;-68
2022/08/22 12:04:32;;;;;;;;;;;;;;;-142.75;65.37;75011.56;5017080;28;20383;-68
2022/08/22 12:07:09;;;;;;;;;;;;;;;-142.75;63.76;74956.47;5034000;28;20012;-67
2022/08/22 12:09:44;;;;;;;;;;;;;;;-142.75;66.71;75052.88;5016098;28;19913;-67
2022/08/22 12:12:28;;;;;;;;;;;;;;;-142.75;63.12;75031.25;5015905;28;19948;-67
2022/08/22 12:14:57;;;;;;;;;;;;;;;-142.75;63.07;74999.75;5015929;28;20312;-67
2022/08/22 12:17:41;;;;;;;;;;;;;;;-142.75;63.42;74984.00;5015953;28;20374;-67
2022/08/22 12:20:06;;;;;;;;;;;;;;;-142.75;63.18;74980.06;5033589;28;19920;-67
2022/08/22 12:22:45;;;;;;;;;;;;;;;-142.75;63.14;74987.94;5015836;28;19917;-67
2022/08/22 12:25:17;;;;;;;;;;;;;;;-142.75;62.79;74968.28;5015992;28;19913;-67
2022/08/22 12:27:54;;;;;;;;;;;;;;;-142.75;62.48;74954.50;5033327;28;19983;-67
2022/08/22 12:30:31;;;;;;;;;;;;;;;-142.75;62.15;74915.16;5033369;28;19913;-67
2022/08/22 12:33:05;;;;;;;;;;;;;;;-142.75;60.49;74893.50;5015674;28;19913;-67
2022/08/22 12:35:49;;;;;;;;;;;;;;;-142.75;59.87;74972.22;5033166;28;19913;-67
2022/08/22 12:38:31;;;;;;;;;;;;;;;-142.75;61.15;75037.16;5021540;23;19926;-69
2022/08/22 12:41:15;;;;;;;;;;;;;;;-142.75;61.46;74978.13;4992553;28;19917;-68
2022/08/22 12:43:58;;;;;;;;;;;;;;;-142.75;59.39;74978.13;4976072;28;19921;-68
2022/08/22 12:46:39;;;;;;;;;;;;;;;-142.75;62.52;74964.34;4992559;28;19914;-70
2022/08/22 12:49:29;;;;;;;;;;;;;;;-142.75;58.13;74928.91;4993407;28;19918;-70
2022/08/22 12:52:13;;;;;;;;;;;;;;;-142.75;59.09;74940.72;4993475;28;20368;-70
2022/08/22 12:54:38;;;;;;;;;;;;;;;-142.75;59.13;74905.31;4993384;28;19913;-67
2022/08/22 12:57:03;;;;;;;;;;;;;;;-142.75;59.29;74923.03;4975583;28;19920;-69
2022/08/22 12:59:37;;;;;;;;;;;;;;;-142.75;59.98;74856.13;4993191;28;19941;-69